createdAt,value
2023-03-19T00:00:23.243Z,2.30
2023-03-19T00:01:23.256Z,2.70
2023-03-19T00:02:23.293Z,2.20
2023-03-19T00:03:23.285Z,2.20
2023-03-19T00:04:23.197Z,2.30
2023-03-19T00:05:23.187Z,2.10
2023-03-19T00:06:23.190Z,2.40
2023-03-19T00:07:23.885Z,2.30
2023-03-19T00:08:23.184Z,2.00
2023-03-19T00:09:23.143Z,2.10
2023-03-19T00:10:23.145Z,2.30
2023-03-19T00:11:23.120Z,2.30
2023-03-19T00:12:23.139Z,2.00
2023-03-19T00:13:23.116Z,2.10
2023-03-19T00:14:23.086Z,1.90
2023-03-19T00:15:23.097Z,2.10
2023-03-19T00:16:23.092Z,2.00
2023-03-19T00:17:23.090Z,2.00
2023-03-19T00:18:23.039Z,2.00
2023-03-19T00:19:23.040Z,2.00
2023-03-19T00:20:23.027Z,2.30
2023-03-19T00:21:25.595Z,1.70
2023-03-19T00:22:23.027Z,1.80
2023-03-19T00:23:22.992Z,2.10
2023-03-19T00:24:22.981Z,2.00
2023-03-19T00:25:23.000Z,1.80
2023-03-19T00:26:22.985Z,2.40
2023-03-19T00:27:22.972Z,1.90
2023-03-19T00:28:22.944Z,1.90
2023-03-19T00:29:22.964Z,2.00
2023-03-19T00:30:22.930Z,2.00
2023-03-19T00:31:22.911Z,1.80
2023-03-19T00:32:22.909Z,1.90
2023-03-19T00:33:22.886Z,2.10
2023-03-19T00:34:22.900Z,1.70
2023-03-19T00:35:22.857Z,1.80
2023-03-19T00:36:22.845Z,1.80
2023-03-19T00:37:22.861Z,1.80
2023-03-19T00:38:22.832Z,1.50
2023-03-19T00:39:22.836Z,1.60
2023-03-19T00:40:22.802Z,1.50
2023-03-19T00:41:22.791Z,1.60
2023-03-19T00:42:22.806Z,1.50
2023-03-19T00:43:22.788Z,1.30
2023-03-19T00:44:22.757Z,1.30
2023-03-19T00:45:22.763Z,1.50
2023-03-19T00:46:22.808Z,1.80
2023-03-19T00:47:22.730Z,1.50
2023-03-19T00:48:22.724Z,1.30
2023-03-19T00:49:22.701Z,1.60
2023-03-19T00:50:22.699Z,2.30
2023-03-19T00:51:22.686Z,1.50
2023-03-19T00:52:22.703Z,1.70
2023-03-19T00:53:22.657Z,1.70
2023-03-19T00:54:22.650Z,1.40
2023-03-19T00:55:22.632Z,1.50
2023-03-19T00:56:22.624Z,1.40
2023-03-19T00:57:22.657Z,1.60
2023-03-19T00:58:22.601Z,1.60
2023-03-19T00:59:22.606Z,1.50
2023-03-19T01:00:22.594Z,1.30
2023-03-19T01:01:22.638Z,1.80
2023-03-19T01:02:22.582Z,1.40
2023-03-19T01:03:22.541Z,1.80
2023-03-19T01:04:22.610Z,1.30
2023-03-19T01:05:22.525Z,1.30
2023-03-19T01:06:22.511Z,1.40
2023-03-19T01:07:22.521Z,1.30
2023-03-19T01:08:22.483Z,1.50
2023-03-19T01:09:22.475Z,1.60
2023-03-19T01:10:22.502Z,1.50
2023-03-19T01:11:22.453Z,1.60
2023-03-19T01:12:22.440Z,1.60
2023-03-19T01:13:22.452Z,1.30
2023-03-19T01:14:22.439Z,1.40
2023-03-19T01:15:26.915Z,1.50
2023-03-19T01:16:22.408Z,1.30
2023-03-19T01:17:22.398Z,1.90
2023-03-19T01:18:22.405Z,1.70
2023-03-19T01:19:22.380Z,1.40
2023-03-19T01:20:22.379Z,1.50
2023-03-19T01:21:22.353Z,1.60
2023-03-19T01:22:22.350Z,1.10
2023-03-19T01:23:22.356Z,1.40
2023-03-19T01:24:22.324Z,1.40
2023-03-19T01:25:22.325Z,2.00
2023-03-19T01:26:22.315Z,1.60
2023-03-19T01:27:22.313Z,1.30
2023-03-19T01:28:22.330Z,1.90
2023-03-19T01:29:22.297Z,1.40
2023-03-19T01:30:22.312Z,1.50
2023-03-19T01:31:22.274Z,1.80
2023-03-19T01:32:22.240Z,1.80
2023-03-19T01:33:25.520Z,1.40
2023-03-19T01:34:22.225Z,1.40
2023-03-19T01:35:22.234Z,1.50
2023-03-19T01:36:22.215Z,1.40
2023-03-19T01:37:22.179Z,1.50
2023-03-19T01:38:22.228Z,1.40
2023-03-19T01:39:22.162Z,1.40
2023-03-19T01:40:22.206Z,1.50
2023-03-19T01:41:22.138Z,1.60
2023-03-19T01:42:22.147Z,1.50
2023-03-19T01:43:22.149Z,1.60
2023-03-19T01:44:23.394Z,1.40
2023-03-19T01:45:22.113Z,1.40
2023-03-19T01:46:22.202Z,1.40
2023-03-19T01:47:22.106Z,1.40
2023-03-19T01:48:22.073Z,1.60
2023-03-19T01:49:22.053Z,1.40
2023-03-19T01:50:22.052Z,1.50
2023-03-19T01:51:22.068Z,1.70
2023-03-19T01:52:22.037Z,1.40
2023-03-19T01:53:22.122Z,1.60
2023-03-19T01:54:22.008Z,1.30
2023-03-19T01:55:22.006Z,1.50
2023-03-19T01:56:21.987Z,1.30
2023-03-19T01:57:21.965Z,1.30
2023-03-19T01:58:23.694Z,1.40
2023-03-19T01:59:21.953Z,1.30
2023-03-19T02:00:21.935Z,1.50
2023-03-19T02:01:21.948Z,1.40
2023-03-19T02:02:21.907Z,1.60
2023-03-19T02:03:21.932Z,1.50
2023-03-19T02:04:21.936Z,1.80
2023-03-19T02:05:21.885Z,1.50
2023-03-19T02:06:21.910Z,1.30
2023-03-19T02:07:21.863Z,1.30
2023-03-19T02:08:21.921Z,1.30
2023-03-19T02:09:21.853Z,1.30
2023-03-19T02:10:21.842Z,1.20
2023-03-19T02:11:21.818Z,1.50
2023-03-19T02:12:21.829Z,1.40
2023-03-19T02:13:21.873Z,1.80
2023-03-19T02:14:21.790Z,1.40
2023-03-19T02:15:21.770Z,1.30
2023-03-19T02:16:21.869Z,1.40
2023-03-19T02:17:21.760Z,1.60
2023-03-19T02:18:21.752Z,1.50
2023-03-19T02:19:21.716Z,1.50
2023-03-19T02:20:21.734Z,1.50
2023-03-19T02:21:21.708Z,1.70
2023-03-19T02:22:21.700Z,1.40
2023-03-19T02:23:21.684Z,1.40
2023-03-19T02:24:21.694Z,1.70
2023-03-19T02:25:21.656Z,1.60
2023-03-19T02:26:21.688Z,1.40
2023-03-19T02:27:21.645Z,1.30
2023-03-19T02:28:21.632Z,1.40
2023-03-19T02:29:21.629Z,1.50
2023-03-19T02:30:21.614Z,1.30
2023-03-19T02:31:21.604Z,1.80
2023-03-19T02:32:21.574Z,1.80
2023-03-19T02:33:21.584Z,1.60
2023-03-19T02:34:21.592Z,1.80
2023-03-19T02:35:21.543Z,1.50
2023-03-19T02:36:21.533Z,1.60
2023-03-19T02:37:21.554Z,1.60
2023-03-19T02:38:21.523Z,1.50
2023-03-19T02:39:21.523Z,1.80
2023-03-19T02:40:21.481Z,1.50
2023-03-19T02:41:21.494Z,1.70
2023-03-19T02:42:21.470Z,1.60
2023-03-19T02:43:21.478Z,1.60
2023-03-19T02:44:21.461Z,1.70
2023-03-19T02:45:21.438Z,1.40
2023-03-19T02:46:21.473Z,1.60
2023-03-19T02:47:21.411Z,1.60
2023-03-19T02:48:21.405Z,1.30
2023-03-19T02:49:21.415Z,1.90
2023-03-19T02:50:21.373Z,1.80
2023-03-19T02:51:21.431Z,1.40
2023-03-19T02:52:21.364Z,1.60
2023-03-19T02:53:21.346Z,1.70
2023-03-19T02:54:21.373Z,1.60
2023-03-19T02:55:27.886Z,1.80
2023-03-19T02:56:21.309Z,1.60
2023-03-19T02:57:21.308Z,1.60
2023-03-19T02:58:21.299Z,1.80
2023-03-19T02:59:21.302Z,1.80
2023-03-19T03:00:21.270Z,1.70
2023-03-19T03:01:21.341Z,1.50
2023-03-19T03:02:21.379Z,1.90
2023-03-19T03:03:21.250Z,1.70
2023-03-19T03:04:21.257Z,1.50
2023-03-19T03:05:21.225Z,1.80
2023-03-19T03:06:21.209Z,1.70
2023-03-19T03:07:21.213Z,1.60
2023-03-19T03:08:21.194Z,1.80
2023-03-19T03:09:21.205Z,1.80
2023-03-19T03:10:21.180Z,1.70
2023-03-19T03:11:21.152Z,1.40
2023-03-19T03:12:21.143Z,1.70
2023-03-19T03:13:21.136Z,1.90
2023-03-19T03:14:21.142Z,1.60
2023-03-19T03:15:21.117Z,1.90
2023-03-19T03:16:21.194Z,1.80
2023-03-19T03:17:21.085Z,1.80
2023-03-19T03:18:21.086Z,1.70
2023-03-19T03:19:21.082Z,1.60
2023-03-19T03:20:21.075Z,1.50
2023-03-19T03:21:21.083Z,1.50
2023-03-19T03:22:21.036Z,1.90
2023-03-19T03:23:21.024Z,1.90
2023-03-19T03:24:21.027Z,2.10
2023-03-19T03:25:21.017Z,1.80
2023-03-19T03:26:21.010Z,1.60
2023-03-19T03:27:20.995Z,1.80
2023-03-19T03:28:20.970Z,1.70
2023-03-19T03:29:20.971Z,1.80
2023-03-19T03:30:20.940Z,1.70
2023-03-19T03:31:20.954Z,1.80
2023-03-19T03:32:20.945Z,1.90
2023-03-19T03:33:20.907Z,1.50
2023-03-19T03:34:20.951Z,1.70
2023-03-19T03:35:20.918Z,1.90
2023-03-19T03:36:20.885Z,2.10
2023-03-19T03:37:20.895Z,1.80
2023-03-19T03:38:20.886Z,1.80
2023-03-19T03:39:20.869Z,2.00
2023-03-19T03:40:20.836Z,1.80
2023-03-19T03:41:20.842Z,1.90
2023-03-19T03:42:20.820Z,2.70
2023-03-19T03:43:20.803Z,2.60
2023-03-19T03:44:20.811Z,2.30
2023-03-19T03:45:20.781Z,2.40
2023-03-19T03:46:20.771Z,2.10
2023-03-19T03:47:20.761Z,2.00
2023-03-19T03:48:20.760Z,2.00
2023-03-19T03:49:20.758Z,2.00
2023-03-19T03:50:20.733Z,2.30
2023-03-19T03:51:20.725Z,2.20
2023-03-19T03:52:20.727Z,2.10
2023-03-19T03:53:20.694Z,2.20
2023-03-19T03:54:20.713Z,2.60
2023-03-19T03:55:20.678Z,1.90
2023-03-19T03:56:20.670Z,2.10
2023-03-19T03:57:20.673Z,1.90
2023-03-19T03:58:20.650Z,2.20
2023-03-19T03:59:20.653Z,2.20
2023-03-19T04:00:20.628Z,1.90
2023-03-19T04:01:20.615Z,1.90
2023-03-19T04:02:20.700Z,2.20
2023-03-19T04:03:20.618Z,2.50
2023-03-19T04:04:20.601Z,2.10
2023-03-19T04:05:20.571Z,2.20
2023-03-19T04:06:20.577Z,2.10
2023-03-19T04:07:20.595Z,2.30
2023-03-19T04:08:20.547Z,2.20
2023-03-19T04:09:20.538Z,2.40
2023-03-19T04:10:20.527Z,2.00
2023-03-19T04:11:20.501Z,2.00
2023-03-19T04:12:20.480Z,2.10
2023-03-19T04:13:20.517Z,2.30
2023-03-19T04:14:20.494Z,2.40
2023-03-19T04:15:20.450Z,2.50
2023-03-19T04:16:20.467Z,2.50
2023-03-19T04:17:20.447Z,2.30
2023-03-19T04:18:20.429Z,2.40
2023-03-19T04:19:20.457Z,2.30
2023-03-19T04:20:20.415Z,2.40
2023-03-19T04:21:20.403Z,2.10
2023-03-19T04:22:20.377Z,2.40
2023-03-19T04:23:20.391Z,3.00
2023-03-19T04:24:20.393Z,2.40
2023-03-19T04:25:20.361Z,3.00
2023-03-19T04:26:20.337Z,2.50
2023-03-19T04:27:20.341Z,2.60
2023-03-19T04:28:20.315Z,2.70
2023-03-19T04:29:20.319Z,2.90
2023-03-19T04:30:20.295Z,2.50
2023-03-19T04:31:20.301Z,2.80
2023-03-19T04:32:20.275Z,2.50
2023-03-19T04:33:20.277Z,3.20
2023-03-19T04:34:20.276Z,3.10
2023-03-19T04:35:20.247Z,3.10
2023-03-19T04:36:20.226Z,3.00
2023-03-19T04:37:20.234Z,3.20
2023-03-19T04:38:20.195Z,2.90
2023-03-19T04:39:20.214Z,3.10
2023-03-19T04:40:20.190Z,3.40
2023-03-19T04:41:20.174Z,3.40
2023-03-19T04:42:20.169Z,3.00
2023-03-19T04:43:20.148Z,3.20
2023-03-19T04:44:20.180Z,3.10
2023-03-19T04:45:20.133Z,3.30
2023-03-19T04:46:20.200Z,3.10
2023-03-19T04:47:20.104Z,3.00
2023-03-19T04:48:20.103Z,3.00
2023-03-19T04:49:20.139Z,3.10
2023-03-19T04:50:20.083Z,4.20
2023-03-19T04:51:20.059Z,3.30
2023-03-19T04:52:20.068Z,3.70
2023-03-19T04:53:20.076Z,4.00
2023-03-19T04:54:20.051Z,3.60
2023-03-19T04:55:20.014Z,3.60
2023-03-19T04:56:20.005Z,3.90
2023-03-19T04:57:19.998Z,3.30
2023-03-19T04:58:19.989Z,3.80
2023-03-19T04:59:22.535Z,3.80
2023-03-19T05:00:19.969Z,3.70
2023-03-19T05:01:19.995Z,3.70
2023-03-19T05:02:19.936Z,3.80
2023-03-19T05:03:19.925Z,4.00
2023-03-19T05:04:19.940Z,3.80
2023-03-19T05:05:19.908Z,3.70
2023-03-19T05:06:19.908Z,4.10
2023-03-19T05:07:19.883Z,4.00
2023-03-19T05:08:19.881Z,3.80
2023-03-19T05:09:19.886Z,4.10
2023-03-19T05:10:19.888Z,3.40
2023-03-19T05:11:19.841Z,4.10
2023-03-19T05:12:19.845Z,3.80
2023-03-19T05:13:21.640Z,3.50
2023-03-19T05:14:19.834Z,4.10
2023-03-19T05:15:19.819Z,3.60
2023-03-19T05:16:19.841Z,3.90
2023-03-19T05:17:19.784Z,4.30
2023-03-19T05:18:19.765Z,4.00
2023-03-19T05:19:19.969Z,3.80
2023-03-19T05:20:19.770Z,3.30
2023-03-19T05:21:19.748Z,3.90
2023-03-19T05:22:19.721Z,4.30
2023-03-19T05:23:19.777Z,3.70
2023-03-19T05:24:19.696Z,4.10
2023-03-19T05:25:19.701Z,3.90
2023-03-19T05:26:19.685Z,4.20
2023-03-19T05:27:19.683Z,3.70
2023-03-19T05:28:19.739Z,4.40
2023-03-19T05:29:19.659Z,4.70
2023-03-19T05:30:19.647Z,4.80
2023-03-19T05:31:19.651Z,4.50
2023-03-19T05:32:19.620Z,5.50
2023-03-19T05:33:19.676Z,5.10
2023-03-19T05:34:19.591Z,4.90
2023-03-19T05:35:19.682Z,6.10
2023-03-19T05:36:19.573Z,5.50
2023-03-19T05:37:19.559Z,6.10
2023-03-19T05:38:19.552Z,6.20
2023-03-19T05:39:19.557Z,5.50
2023-03-19T05:40:19.556Z,6.30
2023-03-19T05:41:19.512Z,5.60
2023-03-19T05:42:19.503Z,5.70
2023-03-19T05:43:19.490Z,6.30
2023-03-19T05:44:19.480Z,6.00
2023-03-19T05:45:19.524Z,5.10
2023-03-19T05:46:19.499Z,6.10
2023-03-19T05:47:19.448Z,6.00
2023-03-19T05:48:19.441Z,5.30
2023-03-19T05:49:19.421Z,5.40
2023-03-19T05:50:19.442Z,5.00
2023-03-19T05:51:19.423Z,5.40
2023-03-19T05:52:19.395Z,5.70
2023-03-19T05:53:19.372Z,4.70
2023-03-19T05:54:19.361Z,5.70
2023-03-19T05:55:19.385Z,5.40
2023-03-19T05:56:19.358Z,4.90
2023-03-19T05:57:19.332Z,5.30
2023-03-19T05:58:19.327Z,5.30
2023-03-19T05:59:19.325Z,5.40
2023-03-19T06:00:19.316Z,5.20
2023-03-19T06:01:19.322Z,5.10
2023-03-19T06:02:19.493Z,5.20
2023-03-19T06:03:19.298Z,5.20
2023-03-19T06:04:19.419Z,5.30
2023-03-19T06:05:19.265Z,5.20
2023-03-19T06:06:19.231Z,5.50
2023-03-19T06:07:19.248Z,6.30
2023-03-19T06:08:19.207Z,5.60
2023-03-19T06:09:19.218Z,4.90
2023-03-19T06:10:19.208Z,5.00
2023-03-19T06:11:19.187Z,5.00
2023-03-19T06:12:19.171Z,5.60
2023-03-19T06:13:19.156Z,5.40
2023-03-19T06:14:19.181Z,5.90
2023-03-19T06:15:19.154Z,5.50
2023-03-19T06:16:19.215Z,6.20
2023-03-19T06:17:19.112Z,6.20
2023-03-19T06:18:19.104Z,6.50
2023-03-19T06:19:19.095Z,6.60
2023-03-19T06:20:19.137Z,6.90
2023-03-19T06:21:19.097Z,6.30
2023-03-19T06:22:19.068Z,6.90
2023-03-19T06:23:19.050Z,6.80
2023-03-19T06:24:19.046Z,7.10
2023-03-19T06:25:19.041Z,7.10
2023-03-19T06:26:19.038Z,7.00
2023-03-19T06:27:18.997Z,6.40
2023-03-19T06:28:18.989Z,6.90
2023-03-19T06:29:19.004Z,7.30
2023-03-19T06:30:19.010Z,7.10
2023-03-19T06:31:18.991Z,6.80
2023-03-19T06:32:18.972Z,6.90
2023-03-19T06:33:18.957Z,7.30
2023-03-19T06:34:18.949Z,7.00
2023-03-19T06:35:18.940Z,7.50
2023-03-19T06:36:18.916Z,7.40
2023-03-19T06:37:18.898Z,7.60
2023-03-19T06:38:18.902Z,7.50
2023-03-19T06:39:18.887Z,7.80
2023-03-19T06:40:18.893Z,7.80
2023-03-19T06:41:18.883Z,7.80
2023-03-19T06:42:18.949Z,7.20
2023-03-19T06:43:18.849Z,7.70
2023-03-19T06:44:18.861Z,6.90
2023-03-19T06:45:19.003Z,7.80
2023-03-19T06:46:18.960Z,8.50
2023-03-19T06:47:18.826Z,8.00
2023-03-19T06:48:18.813Z,7.90
2023-03-19T06:49:18.793Z,8.00
2023-03-19T06:50:18.780Z,8.00
2023-03-19T06:51:18.773Z,7.40
2023-03-19T06:52:18.735Z,8.40
2023-03-19T06:53:18.726Z,7.90
2023-03-19T06:54:18.723Z,8.00
2023-03-19T06:55:18.730Z,7.20
2023-03-19T06:56:18.707Z,7.70
2023-03-19T06:57:18.680Z,7.80
2023-03-19T06:58:18.688Z,7.70
2023-03-19T06:59:18.664Z,7.60
2023-03-19T07:00:18.734Z,7.70
2023-03-19T07:01:18.704Z,6.90
2023-03-19T07:02:18.628Z,7.60
2023-03-19T07:03:18.622Z,7.70
2023-03-19T07:04:18.682Z,8.40
2023-03-19T07:05:18.619Z,7.20
2023-03-19T07:06:18.603Z,7.80
2023-03-19T07:07:18.577Z,7.90
2023-03-19T07:08:18.558Z,8.20
2023-03-19T07:09:18.563Z,8.30
2023-03-19T07:10:18.563Z,8.70
2023-03-19T07:11:18.550Z,8.00
2023-03-19T07:12:18.541Z,7.90
2023-03-19T07:13:18.542Z,7.80
2023-03-19T07:14:18.496Z,8.00
2023-03-19T07:15:18.503Z,7.70
2023-03-19T07:16:18.477Z,8.00
2023-03-19T07:17:18.466Z,8.40
2023-03-19T07:18:18.472Z,7.90
2023-03-19T07:19:18.444Z,7.80
2023-03-19T07:20:18.455Z,7.70
2023-03-19T07:21:18.414Z,7.60
2023-03-19T07:22:18.410Z,8.40
2023-03-19T07:23:18.412Z,8.50
2023-03-19T07:24:18.419Z,7.40
2023-03-19T07:25:18.396Z,8.80
2023-03-19T07:26:18.363Z,7.90
2023-03-19T07:27:18.371Z,7.90
2023-03-19T07:28:18.347Z,8.50
2023-03-19T07:29:18.339Z,7.90
2023-03-19T07:30:18.374Z,7.80
2023-03-19T07:31:18.351Z,8.20
2023-03-19T07:32:18.305Z,7.60
2023-03-19T07:33:18.292Z,7.90
2023-03-19T07:34:18.280Z,8.20
2023-03-19T07:35:18.286Z,7.30
2023-03-19T07:36:18.285Z,8.20
2023-03-19T07:37:20.142Z,7.90
2023-03-19T07:38:18.235Z,7.50
2023-03-19T07:39:18.225Z,8.10
2023-03-19T07:40:18.255Z,8.70
2023-03-19T07:41:18.215Z,8.10
2023-03-19T07:42:18.206Z,8.20
2023-03-19T07:43:18.171Z,7.50
2023-03-19T07:44:18.180Z,8.60
2023-03-19T07:45:18.163Z,7.90
2023-03-19T07:46:18.323Z,7.60
2023-03-19T07:47:28.520Z,8.30
2023-03-19T07:48:18.121Z,6.90
2023-03-19T07:49:18.106Z,7.40
2023-03-19T07:50:18.123Z,8.10
2023-03-19T07:51:18.087Z,8.30
2023-03-19T07:52:18.080Z,8.20
2023-03-19T07:53:18.073Z,7.50
2023-03-19T07:54:18.042Z,7.60
2023-03-19T07:55:18.042Z,7.80
2023-03-19T07:56:18.027Z,7.60
2023-03-19T07:57:18.015Z,7.50
2023-03-19T07:58:18.203Z,7.90
2023-03-19T07:59:18.010Z,8.20
2023-03-19T08:00:18.011Z,8.50
2023-03-19T08:01:17.990Z,8.30
2023-03-19T08:02:18.957Z,7.60
2023-03-19T08:03:17.954Z,8.20
2023-03-19T08:04:18.022Z,7.60
2023-03-19T08:05:17.973Z,7.70
2023-03-19T08:06:17.926Z,7.90
2023-03-19T08:07:19.010Z,7.90
2023-03-19T08:08:17.915Z,8.30
2023-03-19T08:09:17.901Z,8.20
2023-03-19T08:10:17.896Z,7.70
2023-03-19T08:11:17.852Z,8.10
2023-03-19T08:12:17.842Z,7.70
2023-03-19T08:13:17.840Z,7.70
2023-03-19T08:14:17.822Z,8.20
2023-03-19T08:15:17.836Z,7.50
2023-03-19T08:16:17.808Z,7.40
2023-03-19T08:17:17.787Z,7.50
2023-03-19T08:18:17.780Z,7.60
2023-03-19T08:19:17.794Z,7.30
2023-03-19T08:20:17.800Z,7.20
2023-03-19T08:21:17.769Z,8.00
2023-03-19T08:22:17.753Z,7.30
2023-03-19T08:23:17.728Z,7.10
2023-03-19T08:24:17.725Z,6.80
2023-03-19T08:25:17.734Z,7.50
2023-03-19T08:26:17.698Z,6.10
2023-03-19T08:27:17.677Z,6.60
2023-03-19T08:28:17.678Z,6.40
2023-03-19T08:29:19.057Z,7.10
2023-03-19T08:30:17.678Z,6.50
2023-03-19T08:31:17.666Z,7.50
2023-03-19T08:32:17.642Z,6.70
2023-03-19T08:33:17.616Z,6.50
2023-03-19T08:34:17.612Z,6.50
2023-03-19T08:35:17.617Z,6.50
2023-03-19T08:36:17.611Z,6.60
2023-03-19T08:37:17.622Z,7.10
2023-03-19T08:38:17.586Z,6.90
2023-03-19T08:39:17.562Z,6.60
2023-03-19T08:40:17.574Z,6.70
2023-03-19T08:41:17.533Z,6.20
2023-03-19T08:42:17.520Z,6.30
2023-03-19T08:43:17.535Z,5.90
2023-03-19T08:44:17.519Z,5.70
2023-03-19T08:45:17.604Z,6.50
2023-03-19T08:46:17.489Z,6.60
2023-03-19T08:47:17.545Z,6.90
2023-03-19T08:48:17.457Z,6.60
2023-03-19T08:49:17.442Z,5.80
2023-03-19T08:50:17.481Z,6.10
2023-03-19T08:51:17.431Z,6.30
2023-03-19T08:52:17.432Z,6.20
2023-03-19T08:53:17.394Z,6.50
2023-03-19T08:54:17.395Z,5.90
2023-03-19T08:56:13.789Z,5.90
2023-03-19T08:57:14.779Z,6.40
2023-03-19T08:58:14.772Z,6.40
2023-03-19T08:59:14.763Z,6.80
2023-03-19T09:00:14.783Z,6.80
2023-03-19T09:01:14.732Z,6.20
2023-03-19T09:02:14.741Z,6.00
2023-03-19T09:03:14.716Z,6.50
2023-03-19T09:04:14.786Z,6.40
2023-03-19T09:05:14.728Z,6.30
2023-03-19T09:06:14.749Z,6.30
2023-03-19T09:07:14.686Z,6.40
2023-03-19T09:08:14.682Z,6.20
2023-03-19T09:09:14.655Z,6.10
2023-03-19T09:10:14.655Z,6.30
2023-03-19T09:11:14.857Z,6.60
2023-03-19T09:12:14.645Z,6.40
2023-03-19T09:13:14.635Z,5.90
2023-03-19T09:14:14.657Z,5.20
2023-03-19T09:15:14.650Z,6.00
2023-03-19T09:16:14.608Z,5.60
2023-03-19T09:17:14.574Z,5.10
2023-03-19T09:18:14.568Z,5.00
2023-03-19T09:19:14.553Z,4.70
2023-03-19T09:20:14.567Z,4.20
2023-03-19T09:21:14.520Z,4.60
2023-03-19T09:22:14.507Z,4.20
2023-03-19T09:23:14.511Z,4.20
2023-03-19T09:24:14.552Z,3.70
2023-03-19T09:25:14.525Z,4.60
2023-03-19T09:26:14.543Z,4.00
2023-03-19T09:27:14.446Z,4.50
2023-03-19T09:28:14.469Z,4.40
2023-03-19T09:29:14.457Z,5.00
2023-03-19T09:30:14.459Z,4.30
2023-03-19T09:31:14.459Z,4.30
2023-03-19T09:32:14.436Z,4.30
2023-03-19T09:33:14.467Z,4.10
2023-03-19T09:34:14.478Z,4.00
2023-03-19T09:35:14.372Z,4.50
2023-03-19T09:36:14.465Z,3.90
2023-03-19T09:37:14.386Z,4.20
2023-03-19T09:38:14.346Z,4.40
2023-03-19T09:39:14.329Z,4.00
2023-03-19T09:40:14.338Z,4.30
2023-03-19T09:41:14.321Z,4.90
2023-03-19T09:42:14.345Z,4.20
2023-03-19T09:43:14.337Z,4.40
2023-03-19T09:44:14.263Z,4.90
2023-03-19T09:45:14.269Z,4.60
2023-03-19T09:46:14.306Z,4.50
2023-03-19T09:47:14.274Z,4.20
2023-03-19T09:48:14.235Z,4.20
2023-03-19T09:49:14.215Z,4.10
2023-03-19T09:50:14.218Z,4.50
2023-03-19T09:51:14.211Z,4.10
2023-03-19T09:52:14.211Z,4.10
2023-03-19T09:53:14.176Z,4.20
2023-03-19T09:54:14.200Z,3.70
2023-03-19T09:55:14.160Z,4.20
2023-03-19T09:56:14.162Z,3.80
2023-03-19T09:57:15.107Z,3.80
2023-03-19T09:58:14.131Z,3.80
2023-03-19T09:59:14.106Z,3.50
2023-03-19T10:00:14.113Z,3.20
2023-03-19T10:01:14.130Z,3.40
2023-03-19T10:02:14.095Z,4.20
2023-03-19T10:03:14.060Z,3.50
2023-03-19T10:04:14.660Z,3.30
2023-03-19T10:05:14.064Z,3.10
2023-03-19T10:06:14.083Z,2.70
2023-03-19T10:07:14.041Z,3.50
2023-03-19T10:08:13.996Z,3.00
2023-03-19T10:09:13.989Z,3.40
2023-03-19T10:10:14.008Z,4.20
2023-03-19T10:11:14.000Z,3.90
2023-03-19T10:12:13.974Z,4.10
2023-03-19T10:13:13.995Z,3.20
2023-03-19T10:14:14.734Z,3.80
2023-03-19T10:15:13.964Z,3.40
2023-03-19T10:16:14.023Z,3.50
2023-03-19T10:17:13.914Z,3.40
2023-03-19T10:18:13.930Z,3.00
2023-03-19T10:19:13.890Z,3.40
2023-03-19T10:20:13.883Z,3.20
2023-03-19T10:21:13.892Z,3.50
2023-03-19T10:22:13.847Z,3.30
2023-03-19T10:23:13.840Z,3.20
2023-03-19T10:24:13.863Z,3.00
2023-03-19T10:25:13.823Z,3.00
2023-03-19T10:26:13.840Z,3.10
2023-03-19T10:27:13.799Z,2.60
2023-03-19T10:28:13.787Z,3.90
2023-03-19T10:29:13.779Z,3.20
2023-03-19T10:30:13.772Z,3.00
2023-03-19T10:31:13.869Z,3.00
2023-03-19T10:32:13.741Z,2.40
2023-03-19T10:33:13.796Z,3.10
2023-03-19T10:34:13.752Z,3.00
2023-03-19T10:35:13.735Z,3.40
2023-03-19T10:36:16.111Z,3.40
2023-03-19T10:37:13.714Z,2.90
2023-03-19T10:38:13.685Z,3.40
2023-03-19T10:39:13.693Z,3.80
2023-03-19T10:40:13.665Z,3.30
2023-03-19T10:41:13.692Z,3.20
2023-03-19T10:42:13.639Z,3.80
2023-03-19T10:43:13.654Z,3.20
2023-03-19T10:44:13.626Z,4.10
2023-03-19T10:45:13.599Z,4.30
2023-03-19T10:46:13.681Z,4.20
2023-03-19T10:47:13.611Z,4.10
2023-03-19T10:48:13.603Z,3.90
2023-03-19T10:49:13.559Z,3.50
2023-03-19T10:50:13.569Z,3.70
2023-03-19T10:51:13.576Z,3.50
2023-03-19T10:52:13.529Z,3.90
2023-03-19T10:53:13.557Z,3.60
2023-03-19T10:54:13.507Z,3.40
2023-03-19T10:55:13.500Z,3.60
2023-03-19T10:56:13.520Z,3.80
2023-03-19T10:57:13.490Z,4.10
2023-03-19T10:58:13.468Z,4.40
2023-03-19T10:59:13.446Z,3.80
2023-03-19T11:00:13.456Z,3.80
2023-03-19T11:01:13.476Z,3.10
2023-03-19T11:02:13.432Z,3.20
2023-03-19T11:03:13.406Z,2.90
2023-03-19T11:04:13.478Z,3.20
2023-03-19T11:05:13.403Z,2.90
2023-03-19T11:06:13.413Z,3.20
2023-03-19T11:07:13.373Z,3.30
2023-03-19T11:08:17.972Z,3.30
2023-03-19T11:09:13.412Z,3.40
2023-03-19T11:10:13.348Z,3.30
2023-03-19T11:11:13.356Z,3.00
2023-03-19T11:12:13.329Z,2.80
2023-03-19T11:13:13.295Z,2.80
2023-03-19T11:14:13.299Z,2.90
2023-03-19T11:15:13.311Z,3.00
2023-03-19T11:16:13.329Z,3.30
2023-03-19T11:17:13.281Z,3.40
2023-03-19T11:18:13.258Z,3.50
2023-03-19T11:19:13.308Z,3.50
2023-03-19T11:20:13.227Z,3.00
2023-03-19T11:21:13.224Z,3.50
2023-03-19T11:22:13.189Z,3.00
2023-03-19T11:23:13.191Z,3.20
2023-03-19T11:24:13.202Z,3.10
2023-03-19T11:25:13.165Z,3.20
2023-03-19T11:26:13.194Z,3.10
2023-03-19T11:27:13.135Z,3.00
2023-03-19T11:28:13.130Z,3.20
2023-03-19T11:29:13.120Z,3.20
2023-03-19T11:30:13.128Z,3.10
2023-03-19T11:31:13.114Z,3.30
2023-03-19T11:32:21.626Z,3.60
2023-03-19T11:33:13.144Z,3.10
2023-03-19T11:34:13.077Z,3.40
2023-03-19T11:35:13.049Z,2.70
2023-03-19T11:36:13.184Z,2.60
2023-03-19T11:37:13.066Z,3.30
2023-03-19T11:38:13.020Z,3.30
2023-03-19T11:39:13.000Z,3.20
2023-03-19T11:40:12.999Z,3.70
2023-03-19T11:41:13.005Z,3.70
2023-03-19T11:42:12.999Z,3.30
2023-03-19T11:43:12.994Z,3.30
2023-03-19T11:44:12.964Z,3.70
2023-03-19T11:45:12.968Z,3.50
2023-03-19T11:46:13.057Z,3.40
2023-03-19T11:47:26.406Z,4.20
2023-03-19T11:48:12.914Z,3.60
2023-03-19T11:49:12.913Z,4.20
2023-03-19T11:50:12.903Z,3.50
2023-03-19T11:51:12.912Z,3.90
2023-03-19T11:52:12.871Z,3.80
2023-03-19T11:53:12.869Z,3.70
2023-03-19T11:54:12.875Z,4.30
2023-03-19T11:55:12.833Z,3.70
2023-03-19T11:56:15.209Z,3.10
2023-03-19T11:57:12.819Z,2.80
2023-03-19T11:58:12.806Z,2.80
2023-03-19T11:59:12.794Z,2.60
2023-03-19T12:00:12.803Z,2.70
2023-03-19T12:01:12.859Z,2.40
2023-03-19T12:02:12.800Z,2.30
2023-03-19T12:03:12.773Z,2.10
2023-03-19T12:04:12.736Z,2.30
2023-03-19T12:05:12.736Z,2.10
2023-03-19T12:06:12.770Z,2.40
2023-03-19T12:07:12.726Z,2.50
2023-03-19T12:08:12.725Z,2.30
2023-03-19T12:09:12.680Z,2.30
2023-03-19T12:10:12.668Z,2.20
2023-03-19T12:11:12.701Z,2.00
2023-03-19T12:12:12.655Z,2.30
2023-03-19T12:13:12.650Z,1.90
2023-03-19T12:14:12.654Z,1.90
2023-03-19T12:15:12.627Z,2.30
2023-03-19T12:16:12.745Z,2.00
2023-03-19T12:17:12.613Z,2.10
2023-03-19T12:18:12.604Z,2.00
2023-03-19T12:19:12.606Z,2.30
2023-03-19T12:20:12.593Z,2.30
2023-03-19T12:21:12.586Z,2.50
2023-03-19T12:22:12.533Z,2.40
2023-03-19T12:23:12.528Z,2.50
2023-03-19T12:24:12.549Z,2.90
2023-03-19T12:25:12.519Z,2.40
2023-03-19T12:26:12.512Z,2.70
2023-03-19T12:27:12.488Z,2.70
2023-03-19T12:28:12.479Z,2.40
2023-03-19T12:29:12.473Z,5.10
2023-03-19T12:30:12.448Z,3.90
2023-03-19T12:31:12.513Z,2.80
2023-03-19T12:32:12.458Z,2.60
2023-03-19T12:33:12.508Z,4.40
2023-03-19T12:34:14.865Z,3.20
2023-03-19T12:35:12.394Z,12.20
2023-03-19T12:36:12.489Z,7.30
2023-03-19T12:37:12.375Z,3.90
2023-03-19T12:38:12.357Z,3.00
2023-03-19T12:39:12.348Z,3.00
2023-03-19T12:40:14.620Z,2.70
2023-03-19T12:41:12.367Z,3.20
2023-03-19T12:42:12.337Z,2.90
2023-03-19T12:43:12.322Z,3.10
2023-03-19T12:44:12.346Z,2.80
2023-03-19T12:45:12.281Z,3.20
2023-03-19T12:46:12.375Z,2.50
2023-03-19T12:47:12.271Z,2.90
2023-03-19T12:48:12.294Z,2.70
2023-03-19T12:49:12.230Z,2.60
2023-03-19T12:50:12.336Z,2.80
2023-03-19T12:51:12.229Z,3.10
2023-03-19T12:52:12.212Z,2.60
2023-03-19T12:53:12.200Z,2.70
2023-03-19T12:54:12.183Z,2.60
2023-03-19T12:55:12.167Z,2.70
2023-03-19T12:56:12.184Z,2.70
2023-03-19T12:57:12.150Z,2.80
2023-03-19T12:58:12.142Z,3.20
2023-03-19T12:59:12.133Z,3.00
2023-03-19T13:00:12.156Z,2.60
2023-03-19T13:01:12.146Z,3.00
2023-03-19T13:02:12.286Z,2.60
2023-03-19T13:03:12.092Z,3.00
2023-03-19T13:04:12.115Z,3.00
2023-03-19T13:05:12.061Z,3.20
2023-03-19T13:06:12.100Z,3.40
2023-03-19T13:07:12.052Z,3.10
2023-03-19T13:08:12.054Z,3.10
2023-03-19T13:09:12.022Z,3.50
2023-03-19T13:10:12.132Z,3.40
2023-03-19T13:11:12.013Z,3.10
2023-03-19T13:12:11.982Z,3.00
2023-03-19T13:13:11.975Z,3.60
2023-03-19T13:14:11.993Z,3.50
2023-03-19T13:15:11.961Z,3.60
2023-03-19T13:16:12.092Z,3.70
2023-03-19T13:17:11.939Z,3.10
2023-03-19T13:18:11.930Z,3.30
2023-03-19T13:19:11.934Z,3.40